Hitachimaru — JD2063 — position and weather

sailwx.info

Track history (hours):
 
Tides and Currents Weather Stations Pressure Air Temp Water Temp Dewpoint Dewpoint Depression Visibility Wind Speed Wind Dir Waves Ship Positions

Hitachimaru

Last reported at 2015-Mar-06 00:05 UTC. Time now 2015-Mar-06 02:49 UTC.
Position N 34°07' E 134°59'.

Length 83 m; draft 4.5 m.

Type: Cargo ship. MMSI: 431301756.

Date/timePositionNaut miles runAvg speedWind from/ knotsBaromVisibWave heightAir tempDewpointWater temp
2015-Mar-06 00:05N 34°07' E 134°59'1011.1
2015-Mar-05 23:08N 34°17' E 134°59'1110.9
2015-Mar-05 22:08N 34°26' E 135°07'712.0
2015-Mar-05 21:33N 34°30' E 135°14'1110.8
2015-Mar-05 20:33N 34°36' E 135°25'3 0.4
2015-Mar-05 14:28N 34°34' E 135°27'1 0.2
2015-Mar-05 08:21N 34°35' E 135°26'7 7.2
2015-Mar-05 07:26N 34°33' E 135°19'0 0.0
2015-Mar-05 06:32N 34°33' E 135°19'0 0.1
2015-Mar-05 04:32N 34°33' E 135°19'0 0.1
2015-Mar-05 03:32N 34°33' E 135°19'0 0.1
2015-Mar-05 02:32N 34°33' E 135°19'0 0.0
2015-Mar-05 01:26N 34°33' E 135°19'0 0.0
2015-Mar-05 00:26N 34°33' E 135°19'0 0.0
2015-Mar-04 23:20N 34°33' E 135°19'0 0.6
2015-Mar-04 22:33N 34°33' E 135°19'7 3.3
2015-Mar-04 20:33N 34°34' E 135°27'0 0.0
2015-Mar-04 18:24N 34°34' E 135°27'0 0.0
2015-Mar-04 11:10N 34°34' E 135°27'0 0.5
2015-Mar-04 10:08N 34°34' E 135°27'1 1.2
2015-Mar-04 09:31N 34°35' E 135°27'0 0.0
2015-Mar-04 08:13N 34°35' E 135°27'0 0.0
2015-Mar-04 07:07N 34°35' E 135°27'0 0.0
2015-Mar-04 06:31N 34°35' E 135°27'4 4.5
2015-Mar-04 05:33N 34°36' E 135°22'4 4.2
2015-Mar-04 04:33N 34°33' E 135°19'0 0.0
2015-Mar-04 03:33N 34°33' E 135°19'0 0.0
2015-Mar-04 02:33N 34°33' E 135°19'0 0.0
2015-Mar-04 01:33N 34°33' E 135°19'0 0.0
2015-Mar-04 00:33N 34°33' E 135°19'7 6.6
2015-Mar-03 23:33N 34°35' E 135°26'1 1.3
2015-Mar-03 22:27N 34°34' E 135°27'0 0.0
2015-Mar-03 21:27N 34°34' E 135°27'0 0.0
2015-Mar-03 20:27N 34°34' E 135°27'0 0.0
2015-Mar-03 19:09N 34°34' E 135°27'0 0.0
2015-Mar-03 18:33N 34°34' E 135°27'0 0.0
2015-Mar-03 16:27N 34°34' E 135°27'0 0.0
2015-Mar-03 15:33N 34°34' E 135°27'0 0.0
2015-Mar-03 14:27N 34°34' E 135°27'0 0.0
2015-Mar-03 13:33N 34°34' E 135°27'0 0.0
2015-Mar-03 12:33N 34°34' E 135°27'0 0.0
2015-Mar-03 11:33N 34°34' E 135°27'0 0.0
2015-Mar-03 10:15N 34°34' E 135°27'0 0.0
2015-Mar-03 09:33N 34°34' E 135°27'0 0.0
2015-Mar-03 08:03N 34°34' E 135°27'0 0.6
2015-Mar-03 07:33N 34°34' E 135°27'1 0.1
2015-Mar-02 23:33N 34°35' E 135°27'1212.0
2015-Mar-02 22:33N 34°35' E 135°12'10 9.6
2015-Mar-02 21:33N 34°37' E 135°01'1010.3
2015-Mar-02 20:33N 34°38' E 134°48'7 0.2
2015-Mar-01 07:15N 34°37' E 134°57'710.3
2015-Mar-01 06:33N 34°35' E 135°05'1211.3
2015-Mar-01 05:28N 34°23' E 135°02'1010.6
2015-Mar-01 04:33N 34°14' E 134°59'1111.1
2015-Mar-01 03:33N 34°03' E 135°00'230 9.9
2015-Feb-28 04:26N 34°59' E 139°31'1112.3
2015-Feb-28 03:33N 35°06' E 139°41'1111.3
2015-Feb-28 02:33N 35°17' E 139°45'9 8.6
2015-Feb-28 01:33N 35°25' E 139°48'5 4.7
2015-Feb-28 00:33N 35°22' E 139°51'0 0.0
2015-Feb-27 23:33N 35°22' E 139°51'0 0.0
2015-Feb-27 22:30N 35°22' E 139°51'0 0.0
2015-Feb-27 21:33N 35°22' E 139°51'0 0.0
2015-Feb-27 20:33N 35°22' E 139°51'0 0.0
2015-Feb-27 19:33N 35°22' E 139°51'0 0.0
2015-Feb-27 18:33N 35°22' E 139°51'0 0.0
2015-Feb-27 17:33N 35°22' E 139°51'0 0.0
2015-Feb-27 16:33N 35°22' E 139°51'0 0.0
2015-Feb-27 15:33N 35°22' E 139°51'0 0.0
2015-Feb-27 14:33N 35°22' E 139°51'0 0.0
2015-Feb-27 13:33N 35°22' E 139°51'0 0.0
2015-Feb-27 12:32N 35°22' E 139°51'0 0.0
2015-Feb-27 10:32N 35°22' E 139°51'0 0.0
2015-Feb-27 09:29N 35°22' E 139°51'0 0.0
2015-Feb-27 08:32N 35°22' E 139°51'0 0.0
2015-Feb-27 07:20N 35°22' E 139°51'0 0.0
2015-Feb-27 06:29N 35°22' E 139°51'0 0.0
2015-Feb-27 05:32N 35°22' E 139°51'1 1.0
2015-Feb-27 04:33N 35°22' E 139°50'1713.2
2015-Feb-27 03:14N 35°38' E 139°59'8 0.4
2015-Feb-26 06:19N 35°31' E 139°54'911.5
2015-Feb-26 05:33N 35°24' E 139°47'1010.2
2015-Feb-26 04:33N 35°14' E 139°47'1111.0
2015-Feb-26 03:33N 35°04' E 139°43'24210.4
2015-Feb-25 04:17N 33°59' E 135°00'912.3
2015-Feb-25 03:33N 34°07' E 134°59'1211.8
2015-Feb-25 02:33N 34°19' E 134°59'1211.9
2015-Feb-25 01:33N 34°28' E 135°09'1212.0
2015-Feb-25 00:33N 34°35' E 135°21'5 1.6
2015-Feb-24 21:13N 34°34' E 135°27'0 0.0
2015-Feb-24 16:09N 34°34' E 135°27'2 2.7
2015-Feb-24 15:33N 34°35' E 135°28'0 0.0
2015-Feb-24 14:30N 34°35' E 135°28'0 0.0
2015-Feb-24 13:30N 34°35' E 135°28'0 0.0
2015-Feb-24 12:30N 34°35' E 135°28'0 0.0
2015-Feb-24 11:30N 34°35' E 135°28'0 0.0
2015-Feb-24 10:30N 34°35' E 135°28'0 0.0
2015-Feb-24 09:30N 34°35' E 135°28'0 0.0
2015-Feb-24 08:30N 34°35' E 135°28'0 0.0
2015-Feb-24 07:24N 34°35' E 135°28'0 0.0
2015-Feb-24 06:18N 34°35' E 135°28'0 0.0
2015-Feb-24 05:30N 34°35' E 135°28'0 0.0
2015-Feb-24 03:30N 34°35' E 135°28'0 0.0
2015-Feb-24 02:30N 34°35' E 135°28'0 0.0
2015-Feb-24 01:30N 34°35' E 135°28'0 0.0
2015-Feb-24 00:30N 34°35' E 135°28'  
Track history (hours):
 
Tides and Currents Weather Stations Pressure Air Temp Water Temp Dewpoint Dewpoint Depression Visibility Wind Speed Wind Dir Waves Ship Positions

Hitachimaru

Last reported at 2015-Mar-06 00:05 UTC. Time now 2015-Mar-06 02:49 UTC.
Position N 34°07' E 134°59'.

Length 83 m; draft 4.5 m.

Type: Cargo ship. MMSI: 431301756.

Date/timePositionNaut miles runAvg speedWind from/ knotsBaromVisibWave heightAir tempDewpointWater temp
2015-Mar-06 00:05N 34°07' E 134°59'1011.1
2015-Mar-05 23:08N 34°17' E 134°59'1110.9
2015-Mar-05 22:08N 34°26' E 135°07'712.0
2015-Mar-05 21:33N 34°30' E 135°14'1110.8
2015-Mar-05 20:33N 34°36' E 135°25'3 0.4
2015-Mar-05 14:28N 34°34' E 135°27'1 0.2
2015-Mar-05 08:21N 34°35' E 135°26'7 7.2
2015-Mar-05 07:26N 34°33' E 135°19'0 0.0
2015-Mar-05 06:32N 34°33' E 135°19'0 0.1
2015-Mar-05 04:32N 34°33' E 135°19'0 0.1
2015-Mar-05 03:32N 34°33' E 135°19'0 0.1
2015-Mar-05 02:32N 34°33' E 135°19'0 0.0
2015-Mar-05 01:26N 34°33' E 135°19'0 0.0
2015-Mar-05 00:26N 34°33' E 135°19'0 0.0
2015-Mar-04 23:20N 34°33' E 135°19'0 0.6
2015-Mar-04 22:33N 34°33' E 135°19'7 3.3
2015-Mar-04 20:33N 34°34' E 135°27'0 0.0
2015-Mar-04 18:24N 34°34' E 135°27'0 0.0
2015-Mar-04 11:10N 34°34' E 135°27'0 0.5
2015-Mar-04 10:08N 34°34' E 135°27'1 1.2
2015-Mar-04 09:31N 34°35' E 135°27'0 0.0
2015-Mar-04 08:13N 34°35' E 135°27'0 0.0
2015-Mar-04 07:07N 34°35' E 135°27'0 0.0
2015-Mar-04 06:31N 34°35' E 135°27'4 4.5
2015-Mar-04 05:33N 34°36' E 135°22'4 4.2
2015-Mar-04 04:33N 34°33' E 135°19'0 0.0
2015-Mar-04 03:33N 34°33' E 135°19'0 0.0
2015-Mar-04 02:33N 34°33' E 135°19'0 0.0
2015-Mar-04 01:33N 34°33' E 135°19'0 0.0
2015-Mar-04 00:33N 34°33' E 135°19'7 6.6
2015-Mar-03 23:33N 34°35' E 135°26'1 1.3
2015-Mar-03 22:27N 34°34' E 135°27'0 0.0
2015-Mar-03 21:27N 34°34' E 135°27'0 0.0
2015-Mar-03 20:27N 34°34' E 135°27'0 0.0
2015-Mar-03 19:09N 34°34' E 135°27'0 0.0
2015-Mar-03 18:33N 34°34' E 135°27'0 0.0
2015-Mar-03 16:27N 34°34' E 135°27'0 0.0
2015-Mar-03 15:33N 34°34' E 135°27'0 0.0
2015-Mar-03 14:27N 34°34' E 135°27'0 0.0
2015-Mar-03 13:33N 34°34' E 135°27'0 0.0
2015-Mar-03 12:33N 34°34' E 135°27'0 0.0
2015-Mar-03 11:33N 34°34' E 135°27'0 0.0
2015-Mar-03 10:15N 34°34' E 135°27'0 0.0
2015-Mar-03 09:33N 34°34' E 135°27'0 0.0
2015-Mar-03 08:03N 34°34' E 135°27'0 0.6
2015-Mar-03 07:33N 34°34' E 135°27'1 0.1
2015-Mar-02 23:33N 34°35' E 135°27'1212.0
2015-Mar-02 22:33N 34°35' E 135°12'10 9.6
2015-Mar-02 21:33N 34°37' E 135°01'1010.3
2015-Mar-02 20:33N 34°38' E 134°48'7 0.2
2015-Mar-01 07:15N 34°37' E 134°57'710.3
2015-Mar-01 06:33N 34°35' E 135°05'1211.3
2015-Mar-01 05:28N 34°23' E 135°02'1010.6
2015-Mar-01 04:33N 34°14' E 134°59'1111.1
2015-Mar-01 03:33N 34°03' E 135°00'230 9.9
2015-Feb-28 04:26N 34°59' E 139°31'1112.3
2015-Feb-28 03:33N 35°06' E 139°41'1111.3
2015-Feb-28 02:33N 35°17' E 139°45'9 8.6
2015-Feb-28 01:33N 35°25' E 139°48'5 4.7
2015-Feb-28 00:33N 35°22' E 139°51'0 0.0
2015-Feb-27 23:33N 35°22' E 139°51'0 0.0
2015-Feb-27 22:30N 35°22' E 139°51'0 0.0
2015-Feb-27 21:33N 35°22' E 139°51'0 0.0
2015-Feb-27 20:33N 35°22' E 139°51'0 0.0
2015-Feb-27 19:33N 35°22' E 139°51'0 0.0
2015-Feb-27 18:33N 35°22' E 139°51'0 0.0
2015-Feb-27 17:33N 35°22' E 139°51'0 0.0
2015-Feb-27 16:33N 35°22' E 139°51'0 0.0
2015-Feb-27 15:33N 35°22' E 139°51'0 0.0
2015-Feb-27 14:33N 35°22' E 139°51'0 0.0
2015-Feb-27 13:33N 35°22' E 139°51'0 0.0
2015-Feb-27 12:32N 35°22' E 139°51'0 0.0
2015-Feb-27 10:32N 35°22' E 139°51'0 0.0
2015-Feb-27 09:29N 35°22' E 139°51'0 0.0
2015-Feb-27 08:32N 35°22' E 139°51'0 0.0
2015-Feb-27 07:20N 35°22' E 139°51'0 0.0
2015-Feb-27 06:29N 35°22' E 139°51'0 0.0
2015-Feb-27 05:32N 35°22' E 139°51'1 1.0
2015-Feb-27 04:33N 35°22' E 139°50'1713.2
2015-Feb-27 03:14N 35°38' E 139°59'8 0.4
2015-Feb-26 06:19N 35°31' E 139°54'911.5
2015-Feb-26 05:33N 35°24' E 139°47'1010.2
2015-Feb-26 04:33N 35°14' E 139°47'1111.0
2015-Feb-26 03:33N 35°04' E 139°43'24210.4
2015-Feb-25 04:17N 33°59' E 135°00'912.3
2015-Feb-25 03:33N 34°07' E 134°59'1211.8
2015-Feb-25 02:33N 34°19' E 134°59'1211.9
2015-Feb-25 01:33N 34°28' E 135°09'1212.0
2015-Feb-25 00:33N 34°35' E 135°21'5 1.6
2015-Feb-24 21:13N 34°34' E 135°27'0 0.0
2015-Feb-24 16:09N 34°34' E 135°27'2 2.7
2015-Feb-24 15:33N 34°35' E 135°28'0 0.0
2015-Feb-24 14:30N 34°35' E 135°28'0 0.0
2015-Feb-24 13:30N 34°35' E 135°28'0 0.0
2015-Feb-24 12:30N 34°35' E 135°28'0 0.0
2015-Feb-24 11:30N 34°35' E 135°28'0 0.0
2015-Feb-24 10:30N 34°35' E 135°28'0 0.0
2015-Feb-24 09:30N 34°35' E 135°28'0 0.0
2015-Feb-24 08:30N 34°35' E 135°28'0 0.0
2015-Feb-24 07:24N 34°35' E 135°28'0 0.0
2015-Feb-24 06:18N 34°35' E 135°28'0 0.0
2015-Feb-24 05:30N 34°35' E 135°28'0 0.0
2015-Feb-24 03:30N 34°35' E 135°28'0 0.0
2015-Feb-24 02:30N 34°35' E 135°28'0 0.0
2015-Feb-24 01:30N 34°35' E 135°28'0 0.0
2015-Feb-24 00:30N 34°35' E 135°28'  

Dump ship's entire track history